AirNav   TITAN Aviation Fuels
 
 1127 users online  

NA88 Regan Airstrip
Regan, North Dakota, USA

GOING TO REGAN?


FAA INFORMATION EFFECTIVE 01 DECEMBER 2022

Location

FAA Identifier: NA88
Lat/Long: 47-13-25.9760N 100-25-24.4310W
47-13.432933N 100-25.407183W
47.2238822,-100.4234531
(estimated)
Elevation: 2060 ft. / 628 m (estimated)
Variation: 09E (1985)
From city: 6 miles NE of REGAN, ND
Time zone: UTC -6 (UTC -5 during Daylight Saving Time)
Zip code: 58477

Airport Operations

Airport use: Private use. Permission required prior to landing
Activation date: 08/1982
Control tower: no
ARTCC: MINNEAPOLIS CENTER
FSS: GRAND FORKS FLIGHT SERVICE STATION
Attendance: UNATNDD
Wind indicator: yes
Segmented circle: no

Nearby radio navigation aids

VOR radial/distance  VOR name  Freq  Var
BISr008/29.4BISMARCK VOR/DME115.6512E

Airport Services

Runway Information

Runway 9/27

Dimensions: 2500 x 60 ft. / 762 x 18 m
Surface: turf
RUNWAY 9  RUNWAY 27
Traffic pattern: leftleft
Obstructions: none50 ft. hill, 700 ft. from runway

Airport Ownership and Management from official FAA records

Ownership: Privately-owned
Owner: RICHARD L. HAUSAUER
RR.
REGAN, ND 58477
Phone 701-286-6284
Manager: RICHARD L. HAUSAUER
RR.
REGAN, ND 58477

Additional Remarks

RWY 27 +75' HILL 700' ON CNTRLN 300' L OF EXTDD CNTRLN.
RWY 09 HGR LOCATED 200' FM THR 150' LEFT OF CNTRLN.
FOR CD CTC MINNEAPOLIS ARTCC AT 651-463-5588.

Instrument Procedures

There are no published instrument procedures at NA88.

Some nearby airports with instrument procedures:

KBIS - Bismarck Municipal Airport (30 nm SW)
Y19 - Mandan Regional Airport/Lawler Field (33 nm SW)
5H4 - Harvey Municipal Airport (39 nm NE)
KHZE - Mercer County Regional Airport (47 nm W)
D05 - Garrison Municipal Airport (49 nm NW)
 
Loc | Ops | Rwys | IFR | FBO | Links
Com | Nav | Svcs | Stats | Notes

Bismarck Aero Center
AirBoss

 
Area around NA88 (Regan Airstrip)
 
Road maps at: MapQuest Bing Google
 
Aerial photo
No photo
 
Sectional chart

 
Airport distance calculator
Flying to Regan Airstrip? Find the distance to fly.

From to NA88

Sunrise and sunset
Times for 03-Dec-2022
 Local
(UTC-6)
 Zulu
(UTC)
Morning civil twilight07:3613:36
Sunrise08:1114:11
Sunset16:5222:52
Evening civil twilight17:2723:27

Current date and time
Zulu (UTC)  04-Dec-2022 01:24:29
Local (UTC-6)  03-Dec-2022 19:24:29
 
METAR
KBIS 
31nm SW 
040052Z AUTO 00000KT 10SM CLR M14/M18 A3013 RMK AO2 SLP248 T11391178
KY19 
33nm SW 
040055Z AUTO 18005KT 10SM CLR M12/M15 A3011 RMK AO2
K5H4 
39nm NE 
040055Z AUTO 26006KT 10SM CLR M16/M16 A3010 RMK AO2
KHZE 
47nm W 
040055Z AUTO 00000KT 10SM CLR M18/M20 A3011 RMK AO2
KN60 
48nm NW 
040052Z AUTO 00000KT M14/M17 A3007 RMK AO1 SLP233 T11441172
TAF
KBIS 
31nm SW 
032046Z 0321/0418 26006KT P6SM SKC FM040000 24005KT P6SM SKC FM041400 23010KT P6SM SKC WS020/28040KT
NOTAMs
Click for the latest NOTAMs
NOTAMs are issued by the DoD/FAA and will open in a separate window not controlled by AirNav.

 

 
 

Would you like to see your business listed on this page?

 If your business provides an interesting product or service to pilots, flight crews, aircraft, or users of the Regan Airstrip, you should consider listing it here.  To start the listing process, click on the button below
 
Add a business
 

Other Pages about Regan Airstrip

Update a link
 
Copyright © AirNav, LLC. All rights reserved. Privacy Policy  Contact